sensor_id;sensor_type;location;lat;lon;timestamp;temperature;humidity
48686;DHT22;34485;51.536;3.816;2023-06-19T00:01:47;19.80;99.90
48686;DHT22;34485;51.536;3.816;2023-06-19T00:04:13;19.70;99.90
48686;DHT22;34485;51.536;3.816;2023-06-19T00:06:38;19.60;99.90
48686;DHT22;34485;51.536;3.816;2023-06-19T00:09:04;19.60;99.90
48686;DHT22;34485;51.536;3.816;2023-06-19T00:11:30;19.60;99.90
48686;DHT22;34485;51.536;3.816;2023-06-19T00:13:56;19.60;99.90
48686;DHT22;34485;51.536;3.816;2023-06-19T00:16:21;19.50;99.90
48686;DHT22;34485;51.536;3.816;2023-06-19T00:18:50;19.40;99.90
48686;DHT22;34485;51.536;3.816;2023-06-19T00:21:17;19.30;99.90
48686;DHT22;34485;51.536;3.816;2023-06-19T00:23:42;19.30;99.90
48686;DHT22;34485;51.536;3.816;2023-06-19T00:26:08;19.20;99.90
48686;DHT22;34485;51.536;3.816;2023-06-19T00:28:34;19.20;99.90
48686;DHT22;34485;51.536;3.816;2023-06-19T00:30:59;19.20;99.90
48686;DHT22;34485;51.536;3.816;2023-06-19T00:33:25;19.20;99.90
48686;DHT22;34485;51.536;3.816;2023-06-19T00:35:51;19.20;99.90
48686;DHT22;34485;51.536;3.816;2023-06-19T00:38:17;19.30;99.90
48686;DHT22;34485;51.536;3.816;2023-06-19T00:40:42;19.30;99.90
48686;DHT22;34485;51.536;3.816;2023-06-19T00:43:08;19.40;99.90
48686;DHT22;34485;51.536;3.816;2023-06-19T00:45:34;19.50;99.90
48686;DHT22;34485;51.536;3.816;2023-06-19T00:48:00;19.50;99.90
48686;DHT22;34485;51.536;3.816;2023-06-19T00:50:28;19.60;99.90
48686;DHT22;34485;51.536;3.816;2023-06-19T00:52:55;19.60;99.90
48686;DHT22;34485;51.536;3.816;2023-06-19T00:55:21;19.60;99.90
48686;DHT22;34485;51.536;3.816;2023-06-19T00:57:48;19.60;99.90
48686;DHT22;34485;51.536;3.816;2023-06-19T01:00:14;19.60;99.90
48686;DHT22;34485;51.536;3.816;2023-06-19T01:02:40;19.60;99.90
48686;DHT22;34485;51.536;3.816;2023-06-19T01:05:06;19.60;99.90
48686;DHT22;34485;51.536;3.816;2023-06-19T01:07:41;19.50;99.90
48686;DHT22;34485;51.536;3.816;2023-06-19T01:10:13;19.50;99.90
48686;DHT22;34485;51.536;3.816;2023-06-19T01:13:08;19.40;99.90
48686;DHT22;34485;51.536;3.816;2023-06-19T01:15:30;19.40;99.90
48686;DHT22;34485;51.536;3.816;2023-06-19T01:17:57;19.40;99.90
48686;DHT22;34485;51.536;3.816;2023-06-19T01:20:24;19.40;99.90
48686;DHT22;34485;51.536;3.816;2023-06-19T01:22:51;19.30;99.90
48686;DHT22;34485;51.536;3.816;2023-06-19T01:25:16;19.30;99.90
48686;DHT22;34485;51.536;3.816;2023-06-19T01:27:42;19.30;99.90
48686;DHT22;34485;51.536;3.816;2023-06-19T01:30:10;19.30;99.90
48686;DHT22;34485;51.536;3.816;2023-06-19T01:35:19;19.30;99.90
48686;DHT22;34485;51.536;3.816;2023-06-19T01:37:47;19.30;99.90
48686;DHT22;34485;51.536;3.816;2023-06-19T01:40:15;19.30;99.90
48686;DHT22;34485;51.536;3.816;2023-06-19T01:42:41;19.20;99.90
48686;DHT22;34485;51.536;3.816;2023-06-19T01:45:08;19.20;99.90
48686;DHT22;34485;51.536;3.816;2023-06-19T01:47:34;19.20;99.90
48686;DHT22;34485;51.536;3.816;2023-06-19T01:50:00;19.20;99.90
48686;DHT22;34485;51.536;3.816;2023-06-19T01:52:27;19.10;99.90
48686;DHT22;34485;51.536;3.816;2023-06-19T01:54:53;19.10;99.90
48686;DHT22;34485;51.536;3.816;2023-06-19T01:57:18;19.10;99.90
48686;DHT22;34485;51.536;3.816;2023-06-19T01:59:44;19.20;99.90
48686;DHT22;34485;51.536;3.816;2023-06-19T02:02:10;19.10;99.90
48686;DHT22;34485;51.536;3.816;2023-06-19T02:04:36;19.20;99.90
48686;DHT22;34485;51.536;3.816;2023-06-19T02:07:02;19.20;99.90
48686;DHT22;34485;51.536;3.816;2023-06-19T02:09:27;19.20;99.90
48686;DHT22;34485;51.536;3.816;2023-06-19T02:11:53;19.20;99.90
48686;DHT22;34485;51.536;3.816;2023-06-19T02:14:19;19.20;99.90
48686;DHT22;34485;51.536;3.816;2023-06-19T02:16:44;19.20;99.90
48686;DHT22;34485;51.536;3.816;2023-06-19T02:19:10;19.10;99.90
48686;DHT22;34485;51.536;3.816;2023-06-19T02:21:36;19.10;99.90
48686;DHT22;34485;51.536;3.816;2023-06-19T02:24:02;19.00;99.90
48686;DHT22;34485;51.536;3.816;2023-06-19T02:26:28;19.00;99.90
48686;DHT22;34485;51.536;3.816;2023-06-19T02:28:55;19.00;99.90
48686;DHT22;34485;51.536;3.816;2023-06-19T02:31:23;18.90;99.90
48686;DHT22;34485;51.536;3.816;2023-06-19T02:33:50;18.90;99.90
48686;DHT22;34485;51.536;3.816;2023-06-19T02:36:15;18.90;99.90
48686;DHT22;34485;51.536;3.816;2023-06-19T02:38:51;18.90;99.90
48686;DHT22;34485;51.536;3.816;2023-06-19T02:41:17;18.90;99.90
48686;DHT22;34485;51.536;3.816;2023-06-19T02:43:44;18.90;99.90
48686;DHT22;34485;51.536;3.816;2023-06-19T02:46:12;18.90;99.90
48686;DHT22;34485;51.536;3.816;2023-06-19T02:48:37;18.90;99.90
48686;DHT22;34485;51.536;3.816;2023-06-19T02:51:03;18.90;99.90
48686;DHT22;34485;51.536;3.816;2023-06-19T02:53:28;18.90;99.90
48686;DHT22;34485;51.536;3.816;2023-06-19T02:55:54;18.90;99.90
48686;DHT22;34485;51.536;3.816;2023-06-19T02:58:20;18.80;99.90
48686;DHT22;34485;51.536;3.816;2023-06-19T03:00:46;18.70;99.90
48686;DHT22;34485;51.536;3.816;2023-06-19T03:03:11;18.70;99.90
48686;DHT22;34485;51.536;3.816;2023-06-19T03:05:37;18.60;99.90
48686;DHT22;34485;51.536;3.816;2023-06-19T03:08:03;18.60;99.90
48686;DHT22;34485;51.536;3.816;2023-06-19T03:10:29;18.50;99.90
48686;DHT22;34485;51.536;3.816;2023-06-19T03:15:23;18.30;99.90
48686;DHT22;34485;51.536;3.816;2023-06-19T03:17:49;18.30;99.90
48686;DHT22;34485;51.536;3.816;2023-06-19T03:20:15;18.20;99.90
48686;DHT22;34485;51.536;3.816;2023-06-19T03:22:41;18.20;99.90
48686;DHT22;34485;51.536;3.816;2023-06-19T03:25:07;18.20;99.90
48686;DHT22;34485;51.536;3.816;2023-06-19T03:27:34;18.30;99.90
48686;DHT22;34485;51.536;3.816;2023-06-19T03:29:59;18.30;99.90
48686;DHT22;34485;51.536;3.816;2023-06-19T03:32:25;18.30;99.90
48686;DHT22;34485;51.536;3.816;2023-06-19T03:34:50;18.30;99.90
48686;DHT22;34485;51.536;3.816;2023-06-19T03:37:16;18.40;99.90
48686;DHT22;34485;51.536;3.816;2023-06-19T03:39:42;18.40;99.90
48686;DHT22;34485;51.536;3.816;2023-06-19T03:42:08;18.40;99.90
48686;DHT22;34485;51.536;3.816;2023-06-19T03:44:34;18.50;99.90
48686;DHT22;34485;51.536;3.816;2023-06-19T03:46:59;18.40;99.90
48686;DHT22;34485;51.536;3.816;2023-06-19T03:49:25;18.40;99.90
48686;DHT22;34485;51.536;3.816;2023-06-19T03:51:52;18.40;99.90
48686;DHT22;34485;51.536;3.816;2023-06-19T03:54:20;18.40;99.90
48686;DHT22;34485;51.536;3.816;2023-06-19T03:56:45;18.40;99.90
48686;DHT22;34485;51.536;3.816;2023-06-19T03:59:11;18.30;99.90
48686;DHT22;34485;51.536;3.816;2023-06-19T04:01:36;18.30;99.90
48686;DHT22;34485;51.536;3.816;2023-06-19T04:04:02;18.30;99.90
48686;DHT22;34485;51.536;3.816;2023-06-19T04:06:28;18.30;99.90
48686;DHT22;34485;51.536;3.816;2023-06-19T04:08:53;18.30;99.90
48686;DHT22;34485;51.536;3.816;2023-06-19T04:11:19;18.20;99.90
48686;DHT22;34485;51.536;3.816;2023-06-19T04:13:46;18.20;99.90
48686;DHT22;34485;51.536;3.816;2023-06-19T04:16:12;18.20;99.90
48686;DHT22;34485;51.536;3.816;2023-06-19T04:18:37;18.10;99.90
48686;DHT22;34485;51.536;3.816;2023-06-19T04:21:03;18.10;99.90
48686;DHT22;34485;51.536;3.816;2023-06-19T04:23:29;18.10;99.90
48686;DHT22;34485;51.536;3.816;2023-06-19T04:25:54;18.10;99.90
48686;DHT22;34485;51.536;3.816;2023-06-19T04:28:20;18.10;99.90
48686;DHT22;34485;51.536;3.816;2023-06-19T04:30:45;18.10;99.90
48686;DHT22;34485;51.536;3.816;2023-06-19T04:33:11;18.00;99.90
48686;DHT22;34485;51.536;3.816;2023-06-19T04:35:37;18.00;99.90
48686;DHT22;34485;51.536;3.816;2023-06-19T04:38:06;18.00;99.90
48686;DHT22;34485;51.536;3.816;2023-06-19T04:40:31;18.00;99.90
48686;DHT22;34485;51.536;3.816;2023-06-19T04:42:58;18.00;99.90
48686;DHT22;34485;51.536;3.816;2023-06-19T04:45:24;18.00;99.90
48686;DHT22;34485;51.536;3.816;2023-06-19T04:47:49;18.10;99.90
48686;DHT22;34485;51.536;3.816;2023-06-19T04:50:15;18.10;99.90
48686;DHT22;34485;51.536;3.816;2023-06-19T04:52:41;18.00;99.90
48686;DHT22;34485;51.536;3.816;2023-06-19T04:55:08;18.10;99.90
48686;DHT22;34485;51.536;3.816;2023-06-19T04:57:37;18.10;99.90
48686;DHT22;34485;51.536;3.816;2023-06-19T05:00:06;18.10;99.90
48686;DHT22;34485;51.536;3.816;2023-06-19T05:02:33;18.20;99.90
48686;DHT22;34485;51.536;3.816;2023-06-19T05:04:59;18.20;99.90
48686;DHT22;34485;51.536;3.816;2023-06-19T05:07:30;18.20;99.90
48686;DHT22;34485;51.536;3.816;2023-06-19T05:09:57;18.20;99.90
48686;DHT22;34485;51.536;3.816;2023-06-19T05:12:22;18.30;99.90
48686;DHT22;34485;51.536;3.816;2023-06-19T05:14:48;18.30;99.90
48686;DHT22;34485;51.536;3.816;2023-06-19T05:17:13;18.40;99.90
48686;DHT22;34485;51.536;3.816;2023-06-19T05:19:39;18.50;99.40
48686;DHT22;34485;51.536;3.816;2023-06-19T05:22:05;18.50;99.20
48686;DHT22;34485;51.536;3.816;2023-06-19T05:24:32;18.50;99.20
48686;DHT22;34485;51.536;3.816;2023-06-19T05:26:57;18.60;98.70
48686;DHT22;34485;51.536;3.816;2023-06-19T05:29:23;18.50;98.70
48686;DHT22;34485;51.536;3.816;2023-06-19T05:31:49;18.40;99.10
48686;DHT22;34485;51.536;3.816;2023-06-19T05:34:14;18.40;99.10
48686;DHT22;34485;51.536;3.816;2023-06-19T05:36:40;18.50;99.00
48686;DHT22;34485;51.536;3.816;2023-06-19T05:39:05;18.50;98.70
48686;DHT22;34485;51.536;3.816;2023-06-19T05:41:31;18.40;98.80
48686;DHT22;34485;51.536;3.816;2023-06-19T05:43:57;18.40;99.00
48686;DHT22;34485;51.536;3.816;2023-06-19T05:46:23;18.50;98.90
48686;DHT22;34485;51.536;3.816;2023-06-19T05:48:48;18.50;99.10
48686;DHT22;34485;51.536;3.816;2023-06-19T05:51:14;18.50;98.80
48686;DHT22;34485;51.536;3.816;2023-06-19T05:53:40;18.50;99.00
48686;DHT22;34485;51.536;3.816;2023-06-19T05:56:06;18.50;99.10
48686;DHT22;34485;51.536;3.816;2023-06-19T05:58:32;18.50;98.90
48686;DHT22;34485;51.536;3.816;2023-06-19T06:00:58;18.50;98.90
48686;DHT22;34485;51.536;3.816;2023-06-19T06:03:24;18.60;98.70
48686;DHT22;34485;51.536;3.816;2023-06-19T06:05:51;18.60;98.80
48686;DHT22;34485;51.536;3.816;2023-06-19T06:08:16;18.60;98.50
48686;DHT22;34485;51.536;3.816;2023-06-19T06:10:42;18.60;98.30
48686;DHT22;34485;51.536;3.816;2023-06-19T06:13:08;18.70;98.50
48686;DHT22;34485;51.536;3.816;2023-06-19T06:15:33;18.80;98.40
48686;DHT22;34485;51.536;3.816;2023-06-19T06:17:59;18.80;98.40
48686;DHT22;34485;51.536;3.816;2023-06-19T06:20:26;18.90;98.30
48686;DHT22;34485;51.536;3.816;2023-06-19T06:22:53;18.90;98.20
48686;DHT22;34485;51.536;3.816;2023-06-19T06:25:18;18.90;98.00
48686;DHT22;34485;51.536;3.816;2023-06-19T06:27:44;18.90;98.10
48686;DHT22;34485;51.536;3.816;2023-06-19T06:30:11;19.00;97.80
48686;DHT22;34485;51.536;3.816;2023-06-19T06:32:37;19.10;98.10
48686;DHT22;34485;51.536;3.816;2023-06-19T06:35:03;19.10;97.80
48686;DHT22;34485;51.536;3.816;2023-06-19T06:37:29;19.30;97.30
48686;DHT22;34485;51.536;3.816;2023-06-19T06:39:55;19.30;97.30
48686;DHT22;34485;51.536;3.816;2023-06-19T06:42:21;19.40;97.60
48686;DHT22;34485;51.536;3.816;2023-06-19T06:44:46;19.50;97.40
48686;DHT22;34485;51.536;3.816;2023-06-19T06:47:12;19.70;97.00
48686;DHT22;34485;51.536;3.816;2023-06-19T06:49:38;19.80;96.50
48686;DHT22;34485;51.536;3.816;2023-06-19T06:52:04;19.90;96.60
48686;DHT22;34485;51.536;3.816;2023-06-19T06:54:30;20.00;95.70
48686;DHT22;34485;51.536;3.816;2023-06-19T06:56:55;20.00;96.00
48686;DHT22;34485;51.536;3.816;2023-06-19T06:59:26;20.30;95.50
48686;DHT22;34485;51.536;3.816;2023-06-19T07:01:53;20.40;95.10
48686;DHT22;34485;51.536;3.816;2023-06-19T07:04:19;20.60;94.40
48686;DHT22;34485;51.536;3.816;2023-06-19T07:06:45;20.60;94.60
48686;DHT22;34485;51.536;3.816;2023-06-19T07:09:11;20.90;94.00
48686;DHT22;34485;51.536;3.816;2023-06-19T07:11:37;21.30;93.30
48686;DHT22;34485;51.536;3.816;2023-06-19T07:14:02;21.70;92.30
48686;DHT22;34485;51.536;3.816;2023-06-19T07:16:28;21.70;91.50
48686;DHT22;34485;51.536;3.816;2023-06-19T07:18:54;21.90;90.90
48686;DHT22;34485;51.536;3.816;2023-06-19T07:21:19;22.00;90.60
48686;DHT22;34485;51.536;3.816;2023-06-19T07:23:46;22.10;89.90
48686;DHT22;34485;51.536;3.816;2023-06-19T07:26:14;21.90;90.10
48686;DHT22;34485;51.536;3.816;2023-06-19T07:28:41;22.00;90.50
48686;DHT22;34485;51.536;3.816;2023-06-19T07:31:07;22.10;90.40
48686;DHT22;34485;51.536;3.816;2023-06-19T07:33:33;22.30;89.20
48686;DHT22;34485;51.536;3.816;2023-06-19T07:38:28;22.70;86.90
48686;DHT22;34485;51.536;3.816;2023-06-19T07:40:53;22.80;87.50
48686;DHT22;34485;51.536;3.816;2023-06-19T07:43:19;22.80;86.00
48686;DHT22;34485;51.536;3.816;2023-06-19T07:45:45;22.80;86.00
48686;DHT22;34485;51.536;3.816;2023-06-19T07:48:10;22.80;86.50
48686;DHT22;34485;51.536;3.816;2023-06-19T07:50:36;23.10;84.50
48686;DHT22;34485;51.536;3.816;2023-06-19T07:53:01;23.50;84.00
48686;DHT22;34485;51.536;3.816;2023-06-19T07:55:27;24.00;80.20
48686;DHT22;34485;51.536;3.816;2023-06-19T07:57:54;24.00;79.30
48686;DHT22;34485;51.536;3.816;2023-06-19T08:00:25;23.70;79.20
48686;DHT22;34485;51.536;3.816;2023-06-19T08:02:50;23.30;81.00
48686;DHT22;34485;51.536;3.816;2023-06-19T08:05:16;23.30;82.50
48686;DHT22;34485;51.536;3.816;2023-06-19T08:07:42;23.30;82.70
48686;DHT22;34485;51.536;3.816;2023-06-19T08:10:08;23.40;81.00
48686;DHT22;34485;51.536;3.816;2023-06-19T08:12:33;23.10;82.90
48686;DHT22;34485;51.536;3.816;2023-06-19T08:14:59;23.80;81.30
48686;DHT22;34485;51.536;3.816;2023-06-19T08:17:25;24.00;79.30
48686;DHT22;34485;51.536;3.816;2023-06-19T08:19:50;23.90;78.70
48686;DHT22;34485;51.536;3.816;2023-06-19T08:24:42;24.50;76.20
48686;DHT22;34485;51.536;3.816;2023-06-19T08:27:07;24.80;76.00
48686;DHT22;34485;51.536;3.816;2023-06-19T08:29:33;25.00;75.20
48686;DHT22;34485;51.536;3.816;2023-06-19T08:31:59;25.20;75.50
48686;DHT22;34485;51.536;3.816;2023-06-19T08:34:25;25.90;72.90
48686;DHT22;34485;51.536;3.816;2023-06-19T08:36:51;26.20;70.80
48686;DHT22;34485;51.536;3.816;2023-06-19T08:39:17;26.50;69.10
48686;DHT22;34485;51.536;3.816;2023-06-19T08:41:44;27.20;68.10
48686;DHT22;34485;51.536;3.816;2023-06-19T08:44:09;27.70;64.90
48686;DHT22;34485;51.536;3.816;2023-06-19T08:46:35;28.10;63.70
48686;DHT22;34485;51.536;3.816;2023-06-19T08:49:05;28.10;62.70
48686;DHT22;34485;51.536;3.816;2023-06-19T08:51:36;28.00;62.50
48686;DHT22;34485;51.536;3.816;2023-06-19T08:54:04;28.00;61.60
48686;DHT22;34485;51.536;3.816;2023-06-19T08:56:34;27.30;62.00
48686;DHT22;34485;51.536;3.816;2023-06-19T08:59:17;27.00;64.20
48686;DHT22;34485;51.536;3.816;2023-06-19T09:01:53;26.60;65.80
48686;DHT22;34485;51.536;3.816;2023-06-19T09:04:26;26.80;66.20
48686;DHT22;34485;51.536;3.816;2023-06-19T09:06:53;27.30;65.20
48686;DHT22;34485;51.536;3.816;2023-06-19T09:09:20;27.50;63.40
48686;DHT22;34485;51.536;3.816;2023-06-19T09:12:01;27.40;62.90
48686;DHT22;34485;51.536;3.816;2023-06-19T09:14:43;27.20;61.80
48686;DHT22;34485;51.536;3.816;2023-06-19T09:17:17;27.50;62.30
48686;DHT22;34485;51.536;3.816;2023-06-19T09:19:50;28.80;61.30
48686;DHT22;34485;51.536;3.816;2023-06-19T09:22:17;29.70;56.40
48686;DHT22;34485;51.536;3.816;2023-06-19T09:24:47;30.60;53.60
48686;DHT22;34485;51.536;3.816;2023-06-19T09:27:14;30.90;51.10
48686;DHT22;34485;51.536;3.816;2023-06-19T09:29:44;30.30;51.50
48686;DHT22;34485;51.536;3.816;2023-06-19T09:32:20;30.50;53.20
48686;DHT22;34485;51.536;3.816;2023-06-19T09:34:47;30.10;51.60
48686;DHT22;34485;51.536;3.816;2023-06-19T09:37:14;29.80;52.10
48686;DHT22;34485;51.536;3.816;2023-06-19T09:39:40;30.10;54.00
48686;DHT22;34485;51.536;3.816;2023-06-19T09:42:07;30.30;51.80
48686;DHT22;34485;51.536;3.816;2023-06-19T09:44:42;30.40;51.30
48686;DHT22;34485;51.536;3.816;2023-06-19T09:47:16;30.10;52.10
48686;DHT22;34485;51.536;3.816;2023-06-19T09:49:53;30.10;51.10
48686;DHT22;34485;51.536;3.816;2023-06-19T09:52:21;29.60;53.00
48686;DHT22;34485;51.536;3.816;2023-06-19T09:54:51;29.90;54.20
48686;DHT22;34485;51.536;3.816;2023-06-19T09:57:17;30.20;52.40
48686;DHT22;34485;51.536;3.816;2023-06-19T09:59:47;30.40;52.00
48686;DHT22;34485;51.536;3.816;2023-06-19T10:02:16;30.40;51.30
48686;DHT22;34485;51.536;3.816;2023-06-19T10:04:51;30.40;52.30
48686;DHT22;34485;51.536;3.816;2023-06-19T10:07:24;30.60;53.60
48686;DHT22;34485;51.536;3.816;2023-06-19T10:10:07;31.20;50.80
48686;DHT22;34485;51.536;3.816;2023-06-19T10:12:55;32.00;49.50
48686;DHT22;34485;51.536;3.816;2023-06-19T10:17:51;33.30;45.40
48686;DHT22;34485;51.536;3.816;2023-06-19T10:23:08;33.10;44.20
48686;DHT22;34485;51.536;3.816;2023-06-19T10:25:37;33.10;43.90
48686;DHT22;34485;51.536;3.816;2023-06-19T10:28:04;33.00;44.70
48686;DHT22;34485;51.536;3.816;2023-06-19T10:30:33;33.50;44.50
48686;DHT22;34485;51.536;3.816;2023-06-19T10:33:02;34.00;43.10
48686;DHT22;34485;51.536;3.816;2023-06-19T10:35:38;34.30;42.00
48686;DHT22;34485;51.536;3.816;2023-06-19T10:38:05;34.80;40.90
48686;DHT22;34485;51.536;3.816;2023-06-19T10:40:30;35.10;41.50
48686;DHT22;34485;51.536;3.816;2023-06-19T10:42:56;34.70;40.40
48686;DHT22;34485;51.536;3.816;2023-06-19T10:45:21;34.00;42.20
48686;DHT22;34485;51.536;3.816;2023-06-19T10:47:54;33.80;41.30
48686;DHT22;34485;51.536;3.816;2023-06-19T10:50:20;33.90;43.00
48686;DHT22;34485;51.536;3.816;2023-06-19T10:52:47;33.90;41.80
48686;DHT22;34485;51.536;3.816;2023-06-19T10:55:14;33.10;43.10
48686;DHT22;34485;51.536;3.816;2023-06-19T10:57:44;32.80;44.50
48686;DHT22;34485;51.536;3.816;2023-06-19T11:00:10;32.90;45.10
48686;DHT22;34485;51.536;3.816;2023-06-19T11:02:40;33.20;44.80
48686;DHT22;34485;51.536;3.816;2023-06-19T11:05:09;32.90;45.30
48686;DHT22;34485;51.536;3.816;2023-06-19T11:07:35;32.60;44.60
48686;DHT22;34485;51.536;3.816;2023-06-19T11:10:02;31.50;45.90
48686;DHT22;34485;51.536;3.816;2023-06-19T11:12:29;31.20;47.00
48686;DHT22;34485;51.536;3.816;2023-06-19T11:14:54;30.80;48.40
48686;DHT22;34485;51.536;3.816;2023-06-19T11:17:20;30.80;50.00
48686;DHT22;34485;51.536;3.816;2023-06-19T11:19:50;30.60;48.30
48686;DHT22;34485;51.536;3.816;2023-06-19T11:22:15;30.90;49.30
48686;DHT22;34485;51.536;3.816;2023-06-19T11:24:47;31.20;47.20
48686;DHT22;34485;51.536;3.816;2023-06-19T11:27:23;31.90;47.00
48686;DHT22;34485;51.536;3.816;2023-06-19T11:29:57;32.60;44.90
48686;DHT22;34485;51.536;3.816;2023-06-19T11:32:34;32.80;44.00
48686;DHT22;34485;51.536;3.816;2023-06-19T11:35:10;32.90;42.60
48686;DHT22;34485;51.536;3.816;2023-06-19T11:37:37;33.30;42.60
48686;DHT22;34485;51.536;3.816;2023-06-19T11:40:02;33.20;42.00
48686;DHT22;34485;51.536;3.816;2023-06-19T11:42:52;33.40;42.50
48686;DHT22;34485;51.536;3.816;2023-06-19T11:45:18;33.40;40.80
48686;DHT22;34485;51.536;3.816;2023-06-19T11:47:45;33.30;42.30
48686;DHT22;34485;51.536;3.816;2023-06-19T11:50:12;33.00;42.90
48686;DHT22;34485;51.536;3.816;2023-06-19T11:52:38;33.40;43.30
48686;DHT22;34485;51.536;3.816;2023-06-19T11:55:04;33.40;42.00
48686;DHT22;34485;51.536;3.816;2023-06-19T11:57:30;33.70;41.80
48686;DHT22;34485;51.536;3.816;2023-06-19T11:59:56;33.40;41.00
48686;DHT22;34485;51.536;3.816;2023-06-19T12:02:21;33.20;41.60
48686;DHT22;34485;51.536;3.816;2023-06-19T12:04:47;33.00;42.70
48686;DHT22;34485;51.536;3.816;2023-06-19T12:07:13;32.60;42.40
48686;DHT22;34485;51.536;3.816;2023-06-19T12:09:39;31.90;43.30
48686;DHT22;34485;51.536;3.816;2023-06-19T12:12:06;31.40;45.30
48686;DHT22;34485;51.536;3.816;2023-06-19T12:14:32;31.00;45.60
48686;DHT22;34485;51.536;3.816;2023-06-19T12:16:57;30.70;45.20
48686;DHT22;34485;51.536;3.816;2023-06-19T12:19:23;30.20;47.20
48686;DHT22;34485;51.536;3.816;2023-06-19T12:21:48;30.20;49.60
48686;DHT22;34485;51.536;3.816;2023-06-19T12:24:14;29.90;46.50
48686;DHT22;34485;51.536;3.816;2023-06-19T12:26:40;29.60;47.80
48686;DHT22;34485;51.536;3.816;2023-06-19T12:29:06;29.60;48.70
48686;DHT22;34485;51.536;3.816;2023-06-19T12:31:35;29.40;48.90
48686;DHT22;34485;51.536;3.816;2023-06-19T12:34:04;29.40;48.80
48686;DHT22;34485;51.536;3.816;2023-06-19T12:36:31;29.70;49.50
48686;DHT22;34485;51.536;3.816;2023-06-19T12:38:58;30.00;47.90
48686;DHT22;34485;51.536;3.816;2023-06-19T12:41:24;30.10;46.90
48686;DHT22;34485;51.536;3.816;2023-06-19T12:43:50;30.30;48.50
48686;DHT22;34485;51.536;3.816;2023-06-19T12:46:16;30.50;47.00
48686;DHT22;34485;51.536;3.816;2023-06-19T12:48:42;30.50;46.70
48686;DHT22;34485;51.536;3.816;2023-06-19T12:51:07;30.10;47.70
48686;DHT22;34485;51.536;3.816;2023-06-19T12:53:33;29.80;49.00
48686;DHT22;34485;51.536;3.816;2023-06-19T12:55:59;29.80;49.00
48686;DHT22;34485;51.536;3.816;2023-06-19T12:58:25;30.00;48.40
48686;DHT22;34485;51.536;3.816;2023-06-19T13:00:51;30.00;48.30
48686;DHT22;34485;51.536;3.816;2023-06-19T13:03:17;29.80;48.50
48686;DHT22;34485;51.536;3.816;2023-06-19T13:08:10;29.10;48.00
48686;DHT22;34485;51.536;3.816;2023-06-19T13:10:35;29.20;50.00
48686;DHT22;34485;51.536;3.816;2023-06-19T13:13:01;29.10;50.00
48686;DHT22;34485;51.536;3.816;2023-06-19T13:15:27;29.10;49.60
48686;DHT22;34485;51.536;3.816;2023-06-19T13:17:53;29.00;48.50
48686;DHT22;34485;51.536;3.816;2023-06-19T13:20:18;28.60;48.90
48686;DHT22;34485;51.536;3.816;2023-06-19T13:22:44;28.30;52.00
48686;DHT22;34485;51.536;3.816;2023-06-19T13:25:10;28.50;51.80
48686;DHT22;34485;51.536;3.816;2023-06-19T13:27:36;28.10;55.80
48686;DHT22;34485;51.536;3.816;2023-06-19T13:30:02;28.10;57.70
48686;DHT22;34485;51.536;3.816;2023-06-19T13:32:28;28.10;58.40
48686;DHT22;34485;51.536;3.816;2023-06-19T13:34:53;28.00;59.70
48686;DHT22;34485;51.536;3.816;2023-06-19T13:37:19;28.20;57.40
48686;DHT22;34485;51.536;3.816;2023-06-19T13:39:45;27.60;59.00
48686;DHT22;34485;51.536;3.816;2023-06-19T13:42:11;27.10;60.70
48686;DHT22;34485;51.536;3.816;2023-06-19T13:47:04;26.20;92.50
48686;DHT22;34485;51.536;3.816;2023-06-19T13:49:29;25.70;90.50
48686;DHT22;34485;51.536;3.816;2023-06-19T13:51:55;25.40;67.70
48686;DHT22;34485;51.536;3.816;2023-06-19T13:54:21;25.10;69.30
48686;DHT22;34485;51.536;3.816;2023-06-19T13:56:47;24.90;71.70
48686;DHT22;34485;51.536;3.816;2023-06-19T13:59:14;24.70;70.40
48686;DHT22;34485;51.536;3.816;2023-06-19T14:01:39;24.70;71.10
48686;DHT22;34485;51.536;3.816;2023-06-19T14:04:06;24.70;72.40
48686;DHT22;34485;51.536;3.816;2023-06-19T14:06:32;24.60;71.60
48686;DHT22;34485;51.536;3.816;2023-06-19T14:08:58;24.40;71.00
48686;DHT22;34485;51.536;3.816;2023-06-19T14:11:23;24.20;72.00
48686;DHT22;34485;51.536;3.816;2023-06-19T14:13:49;24.30;71.50
48686;DHT22;34485;51.536;3.816;2023-06-19T14:16:15;24.30;72.50
48686;DHT22;34485;51.536;3.816;2023-06-19T14:18:41;24.30;74.30
48686;DHT22;34485;51.536;3.816;2023-06-19T14:21:07;24.30;72.20
48686;DHT22;34485;51.536;3.816;2023-06-19T14:23:32;24.30;73.00
48686;DHT22;34485;51.536;3.816;2023-06-19T14:25:59;24.20;72.70
48686;DHT22;34485;51.536;3.816;2023-06-19T14:28:25;24.20;72.70
48686;DHT22;34485;51.536;3.816;2023-06-19T14:30:50;24.40;76.90
48686;DHT22;34485;51.536;3.816;2023-06-19T14:33:16;24.60;73.50
48686;DHT22;34485;51.536;3.816;2023-06-19T14:35:42;24.70;72.80
48686;DHT22;34485;51.536;3.816;2023-06-19T14:38:14;24.60;71.60
48686;DHT22;34485;51.536;3.816;2023-06-19T14:40:41;24.20;72.50
48686;DHT22;34485;51.536;3.816;2023-06-19T14:43:06;24.10;75.10
48686;DHT22;34485;51.536;3.816;2023-06-19T14:45:34;24.00;73.60
48686;DHT22;34485;51.536;3.816;2023-06-19T14:48:00;23.80;74.20
48686;DHT22;34485;51.536;3.816;2023-06-19T14:50:25;23.90;75.40
48686;DHT22;34485;51.536;3.816;2023-06-19T14:52:51;23.90;73.20
48686;DHT22;34485;51.536;3.816;2023-06-19T14:55:16;23.90;73.60
48686;DHT22;34485;51.536;3.816;2023-06-19T14:57:42;24.00;72.50
48686;DHT22;34485;51.536;3.816;2023-06-19T15:00:08;23.90;73.20
48686;DHT22;34485;51.536;3.816;2023-06-19T15:02:35;24.00;73.20
48686;DHT22;34485;51.536;3.816;2023-06-19T15:05:01;24.10;73.00
48686;DHT22;34485;51.536;3.816;2023-06-19T15:07:26;24.20;71.40
48686;DHT22;34485;51.536;3.816;2023-06-19T15:09:52;24.30;69.90
48686;DHT22;34485;51.536;3.816;2023-06-19T15:12:17;24.30;71.40
48686;DHT22;34485;51.536;3.816;2023-06-19T15:14:45;24.50;71.50
48686;DHT22;34485;51.536;3.816;2023-06-19T15:17:10;24.70;69.70
48686;DHT22;34485;51.536;3.816;2023-06-19T15:19:36;24.90;68.20
48686;DHT22;34485;51.536;3.816;2023-06-19T15:22:01;25.00;68.00
48686;DHT22;34485;51.536;3.816;2023-06-19T15:24:27;25.20;67.70
48686;DHT22;34485;51.536;3.816;2023-06-19T15:26:53;25.30;68.60
48686;DHT22;34485;51.536;3.816;2023-06-19T15:29:18;25.00;67.90
48686;DHT22;34485;51.536;3.816;2023-06-19T15:31:44;25.00;69.40
48686;DHT22;34485;51.536;3.816;2023-06-19T15:34:09;24.90;69.20
48686;DHT22;34485;51.536;3.816;2023-06-19T15:36:35;24.90;68.70
48686;DHT22;34485;51.536;3.816;2023-06-19T15:39:01;24.90;68.80
48686;DHT22;34485;51.536;3.816;2023-06-19T15:41:26;25.00;67.50
48686;DHT22;34485;51.536;3.816;2023-06-19T15:43:52;24.90;68.30
48686;DHT22;34485;51.536;3.816;2023-06-19T15:46:18;25.00;69.30
48686;DHT22;34485;51.536;3.816;2023-06-19T15:48:43;25.20;69.10